createdAt,value
2022-10-05T00:01:54.449Z,5.35
2022-10-05T00:04:27.681Z,5.34
2022-10-05T00:07:08.536Z,5.32
2022-10-05T00:09:35.225Z,5.31
2022-10-05T00:12:22.929Z,5.27
2022-10-05T00:14:53.268Z,5.21
2022-10-05T00:17:22.881Z,5.13
2022-10-05T00:19:52.252Z,5.08
2022-10-05T00:22:33.433Z,5.07
2022-10-05T00:25:02.042Z,5.10
2022-10-05T00:27:36.886Z,5.13
2022-10-05T00:30:16.359Z,5.17
2022-10-05T00:32:44.108Z,5.16
2022-10-05T00:35:13.289Z,5.13
2022-10-05T00:37:40.767Z,5.10
2022-10-05T00:40:21.836Z,5.10
2022-10-05T00:42:55.976Z,5.09
2022-10-05T00:45:35.472Z,5.09
2022-10-05T00:48:18.449Z,5.11
2022-10-05T00:50:48.173Z,5.09
2022-10-05T00:53:19.847Z,5.06
2022-10-05T00:56:02.636Z,5.03
2022-10-05T00:58:29.611Z,5.00
2022-10-05T01:01:17.153Z,4.98
2022-10-05T01:03:56.701Z,4.97
2022-10-05T01:06:29.538Z,4.96
2022-10-05T01:09:31.026Z,4.96
2022-10-05T01:12:40.030Z,4.97
2022-10-05T01:15:34.859Z,5.01
2022-10-05T01:18:23.221Z,5.04
2022-10-05T01:21:12.394Z,5.05
2022-10-05T01:24:04.109Z,5.00
2022-10-05T01:27:02.112Z,4.96
2022-10-05T01:29:57.798Z,4.91
2022-10-05T01:32:34.863Z,4.82
2022-10-05T01:35:21.930Z,4.81
2022-10-05T01:38:04.247Z,4.83
2022-10-05T01:40:42.720Z,4.85
2022-10-05T01:43:17.903Z,4.86
2022-10-05T01:46:03.025Z,4.83
2022-10-05T01:49:08.393Z,4.75
2022-10-05T01:52:07.406Z,4.67
2022-10-05T01:54:57.449Z,4.62
2022-10-05T01:58:05.586Z,4.66
2022-10-05T02:00:40.398Z,4.72
2022-10-05T02:03:19.059Z,4.73
2022-10-05T02:06:05.927Z,4.69
2022-10-05T02:09:06.007Z,4.68
2022-10-05T02:11:34.041Z,4.72
2022-10-05T02:14:31.436Z,4.73
2022-10-05T02:17:05.122Z,4.74
2022-10-05T02:19:42.334Z,4.76
2022-10-05T02:22:18.126Z,4.76
2022-10-05T02:24:51.532Z,4.74
2022-10-05T02:27:25.755Z,4.74
2022-10-05T02:29:59.397Z,4.78
2022-10-05T02:32:34.810Z,4.77
2022-10-05T02:35:11.789Z,4.77
2022-10-05T02:37:45.868Z,4.74
2022-10-05T02:40:40.875Z,4.73
2022-10-05T02:43:39.609Z,4.75
2022-10-05T02:46:10.479Z,4.80
2022-10-05T02:48:53.649Z,4.83
2022-10-05T02:51:26.739Z,4.85
2022-10-05T02:54:12.529Z,4.86
2022-10-05T02:57:04.471Z,4.85
2022-10-05T02:59:40.015Z,4.83
2022-10-05T03:02:12.453Z,4.82
2022-10-05T03:05:07.853Z,4.83
2022-10-05T03:08:05.103Z,4.84
2022-10-05T03:11:00.035Z,4.86
2022-10-05T03:13:55.130Z,4.86
2022-10-05T03:16:51.312Z,4.85
2022-10-05T03:19:42.580Z,4.84
2022-10-05T03:22:21.646Z,4.81
2022-10-05T03:25:16.876Z,4.78
2022-10-05T03:27:46.994Z,4.78
2022-10-05T03:30:22.386Z,4.78
2022-10-05T03:32:56.502Z,4.79
2022-10-05T03:35:35.589Z,4.80
2022-10-05T03:38:17.447Z,4.82
2022-10-05T03:40:53.814Z,4.84
2022-10-05T03:43:26.895Z,4.82
2022-10-05T03:46:07.873Z,4.79
2022-10-05T03:48:47.831Z,4.79
2022-10-05T03:51:23.693Z,4.80
2022-10-05T03:53:56.931Z,4.83
2022-10-05T03:56:50.255Z,4.84
2022-10-05T03:59:51.914Z,4.85
2022-10-05T04:02:29.079Z,4.83
2022-10-05T04:05:09.413Z,4.82
2022-10-05T04:07:46.150Z,4.81
2022-10-05T04:10:21.463Z,4.82
2022-10-05T04:12:55.189Z,4.84
2022-10-05T04:15:45.758Z,4.86
2022-10-05T04:18:22.900Z,4.89
2022-10-05T04:20:53.248Z,4.89
2022-10-05T04:23:35.560Z,4.89
2022-10-05T04:26:08.986Z,4.90
2022-10-05T04:29:16.913Z,4.94
2022-10-05T04:32:19.348Z,4.98
2022-10-05T04:34:55.564Z,4.99
2022-10-05T04:37:37.357Z,4.96
2022-10-05T04:40:23.409Z,4.96
2022-10-05T04:42:59.597Z,4.98
2022-10-05T04:45:44.977Z,5.01
2022-10-05T04:48:40.086Z,5.20
2022-10-05T04:51:37.203Z,5.65
2022-10-05T04:54:53.218Z,6.17
2022-10-05T04:57:31.159Z,6.77
2022-10-05T05:00:05.336Z,7.14
2022-10-05T05:02:38.141Z,7.49
2022-10-05T05:05:24.123Z,7.85
2022-10-05T05:08:28.440Z,8.28
2022-10-05T05:11:15.827Z,8.61
2022-10-05T05:14:15.113Z,8.91
2022-10-05T05:17:12.896Z,9.10
2022-10-05T05:20:13.342Z,9.42
2022-10-05T05:22:53.358Z,9.66
2022-10-05T05:25:27.179Z,9.66
2022-10-05T05:28:06.320Z,9.93
2022-10-05T05:30:53.520Z,10.23
2022-10-05T05:33:35.144Z,10.37
2022-10-05T05:36:13.456Z,10.53
2022-10-05T05:39:00.272Z,10.55
2022-10-05T05:41:36.690Z,10.38
2022-10-05T05:44:24.703Z,10.20
2022-10-05T05:47:04.041Z,9.99
2022-10-05T05:49:44.248Z,9.80
2022-10-05T05:52:16.937Z,10.22
2022-10-05T05:54:56.873Z,10.88
2022-10-05T05:57:46.576Z,11.49
2022-10-05T06:00:14.495Z,11.88
2022-10-05T06:02:56.065Z,12.07
2022-10-05T06:05:30.899Z,12.44
2022-10-05T06:08:08.676Z,12.82
2022-10-05T06:10:43.985Z,12.77
2022-10-05T06:13:44.686Z,12.90
2022-10-05T06:16:29.972Z,13.20
2022-10-05T06:19:11.250Z,13.86
2022-10-05T06:22:04.971Z,14.38
2022-10-05T06:25:13.584Z,14.88
2022-10-05T10:21:18.931Z,31.95
2022-10-05T10:24:14.910Z,32.53
2022-10-05T10:26:55.620Z,33.05
2022-10-05T10:30:13.491Z,33.53
2022-10-05T10:33:05.036Z,34.07
2022-10-05T10:35:40.616Z,34.79
2022-10-05T10:38:58.083Z,35.54
2022-10-05T10:41:31.619Z,35.86
2022-10-05T10:44:02.025Z,35.69
2022-10-05T10:46:40.932Z,34.55
2022-10-05T10:49:43.831Z,33.84
2022-10-05T10:52:21.434Z,34.15
2022-10-05T10:55:14.826Z,34.13
2022-10-05T10:57:47.153Z,33.70
2022-10-05T11:00:42.948Z,33.33
2022-10-05T11:03:31.680Z,32.98
2022-10-05T11:06:21.418Z,32.25
2022-10-05T11:09:01.767Z,32.31
2022-10-05T11:12:10.275Z,32.14
2022-10-05T11:15:06.415Z,31.59
2022-10-05T11:17:48.501Z,29.68
2022-10-05T11:20:38.029Z,28.05
2022-10-05T11:23:14.458Z,26.66
2022-10-05T11:26:10.995Z,25.90
2022-10-05T11:29:05.904Z,25.15
2022-10-05T11:31:42.684Z,24.48
2022-10-05T11:34:28.090Z,23.47
2022-10-05T11:37:00.945Z,22.68
2022-10-05T11:39:43.940Z,21.59
2022-10-05T11:42:30.641Z,21.28
2022-10-05T11:45:06.254Z,21.25
2022-10-05T11:48:10.194Z,21.22
2022-10-05T11:50:51.263Z,20.91
2022-10-05T11:53:34.518Z,20.68
2022-10-05T11:56:07.441Z,20.13
2022-10-05T11:58:51.166Z,19.67
2022-10-05T12:01:26.596Z,19.42
2022-10-05T12:04:31.496Z,19.16
2022-10-05T12:07:09.038Z,18.94
2022-10-05T12:10:04.885Z,18.82
2022-10-05T12:12:54.844Z,18.44
2022-10-05T12:15:31.354Z,18.35
2022-10-05T12:18:07.771Z,18.30
2022-10-05T12:20:34.593Z,18.16
2022-10-05T12:23:14.288Z,17.96
2022-10-05T12:26:04.927Z,17.89
2022-10-05T12:28:42.590Z,17.63
2022-10-05T12:31:43.377Z,17.68
2022-10-05T12:34:27.627Z,17.69
2022-10-05T12:37:05.054Z,17.68
2022-10-05T12:39:37.833Z,17.60
2022-10-05T12:42:28.146Z,17.61
2022-10-05T12:45:16.773Z,17.63
2022-10-05T12:48:08.770Z,17.56
2022-10-05T12:51:15.869Z,17.50
2022-10-05T12:53:43.011Z,17.47
2022-10-05T12:56:16.641Z,17.47
2022-10-05T12:58:55.777Z,17.51
2022-10-05T13:01:47.118Z,17.55
2022-10-05T13:04:13.992Z,17.51
2022-10-05T13:07:11.562Z,17.49
2022-10-05T13:10:17.270Z,17.45
2022-10-05T13:13:04.724Z,17.42
2022-10-05T13:15:34.471Z,17.38
2022-10-05T13:18:13.402Z,17.34
2022-10-05T13:20:46.552Z,17.20
2022-10-05T13:23:26.057Z,17.17
2022-10-05T13:26:07.226Z,17.15
2022-10-05T13:28:46.132Z,17.15
2022-10-05T13:31:19.713Z,17.20
2022-10-05T13:34:33.570Z,17.25
2022-10-05T13:37:18.440Z,17.29
2022-10-05T13:40:16.616Z,17.29
2022-10-05T13:42:53.481Z,17.16
2022-10-05T13:45:26.033Z,17.16
2022-10-05T13:48:10.439Z,17.13
2022-10-05T13:50:58.052Z,17.18
2022-10-05T13:53:44.048Z,17.21
2022-10-05T13:56:37.034Z,17.20
2022-10-05T13:59:25.501Z,17.13
2022-10-05T14:01:58.959Z,16.96
2022-10-05T14:04:42.892Z,16.78
2022-10-05T14:07:38.262Z,16.65
2022-10-05T14:10:12.306Z,16.53
2022-10-05T14:12:42.071Z,16.37
2022-10-05T14:15:31.942Z,16.24
2022-10-05T14:17:59.151Z,16.14
2022-10-05T14:20:30.836Z,16.06
2022-10-05T14:23:01.469Z,15.99
2022-10-05T14:25:30.641Z,15.93
2022-10-05T14:28:23.825Z,15.88
2022-10-05T14:30:59.470Z,15.84
2022-10-05T14:33:32.154Z,15.78
2022-10-05T14:35:59.482Z,15.75
2022-10-05T14:38:28.896Z,15.69
2022-10-05T14:41:07.588Z,15.66
2022-10-05T14:43:35.369Z,15.60
2022-10-05T14:46:24.990Z,15.53
2022-10-05T14:49:21.451Z,15.48
2022-10-05T14:51:52.892Z,15.41
2022-10-05T14:54:34.745Z,15.33
2022-10-05T14:57:32.952Z,15.26
2022-10-05T15:00:11.506Z,15.10
2022-10-05T15:02:53.749Z,14.93
2022-10-05T15:05:42.206Z,14.79
2022-10-05T15:08:24.385Z,14.63
2022-10-05T15:11:05.882Z,14.53
2022-10-05T15:13:38.541Z,14.40
2022-10-05T15:16:18.418Z,14.31
2022-10-05T15:19:00.666Z,14.25
2022-10-05T15:22:00.618Z,14.17
2022-10-05T15:25:07.827Z,14.04
2022-10-05T15:27:48.976Z,13.93
2022-10-05T15:30:17.817Z,13.87
2022-10-05T15:33:05.607Z,13.83
2022-10-05T15:35:39.753Z,13.76
2022-10-05T15:38:20.645Z,13.69
2022-10-05T15:40:50.128Z,13.60
2022-10-05T15:43:20.422Z,13.52
2022-10-05T15:46:33.711Z,13.45
2022-10-05T15:49:37.709Z,13.32
2022-10-05T15:52:25.838Z,13.22
2022-10-05T15:55:01.050Z,13.14
2022-10-05T15:57:49.977Z,13.08
2022-10-05T16:00:21.675Z,13.00
2022-10-05T16:02:57.651Z,12.91
2022-10-05T16:05:52.750Z,12.77
2022-10-05T16:08:51.077Z,12.65
2022-10-05T16:11:31.338Z,12.55
2022-10-05T16:14:12.791Z,12.47
2022-10-05T16:16:59.422Z,12.34
2022-10-05T16:19:56.523Z,12.22
2022-10-05T16:22:43.396Z,12.12
2022-10-05T16:25:21.840Z,12.07
2022-10-05T16:28:05.670Z,12.01
2022-10-05T16:30:58.252Z,11.94
2022-10-05T16:33:53.650Z,11.88
2022-10-05T16:36:40.135Z,11.85
2022-10-05T16:39:22.615Z,11.80
2022-10-05T16:42:03.378Z,11.74
2022-10-05T16:44:42.335Z,11.62
2022-10-05T16:47:42.439Z,11.49
2022-10-05T16:50:24.473Z,11.36
2022-10-05T16:53:21.470Z,11.28
2022-10-05T16:55:55.034Z,11.23
2022-10-05T16:58:39.893Z,11.22
2022-10-05T17:01:31.341Z,11.20
2022-10-05T17:04:31.278Z,11.18
2022-10-05T17:07:31.302Z,11.11
2022-10-05T17:10:10.254Z,11.00
2022-10-05T17:12:44.891Z,10.94
2022-10-05T17:15:29.724Z,10.88
2022-10-05T17:18:23.128Z,10.82
2022-10-05T17:21:02.039Z,10.76
2022-10-05T17:24:00.344Z,10.73
2022-10-05T17:26:46.103Z,10.71
2022-10-05T17:29:24.773Z,10.69
2022-10-05T17:32:33.004Z,10.63
2022-10-05T17:34:59.963Z,10.49
2022-10-05T17:37:26.599Z,10.34
2022-10-05T17:39:55.125Z,10.22
2022-10-05T17:42:30.920Z,10.05
2022-10-05T17:45:02.070Z,9.92
2022-10-05T17:48:05.503Z,9.86
2022-10-05T17:50:58.793Z,9.77
2022-10-05T17:53:53.504Z,9.63
2022-10-05T17:56:22.493Z,9.55
2022-10-05T17:58:54.011Z,9.50
2022-10-05T18:01:31.913Z,9.44
2022-10-05T18:04:10.944Z,9.32
2022-10-05T18:06:56.562Z,9.21
2022-10-05T18:09:24.128Z,9.13
2022-10-05T18:12:15.793Z,9.08
2022-10-05T18:15:02.505Z,9.11
2022-10-05T18:17:45.860Z,9.10
2022-10-05T18:20:34.147Z,9.11
2022-10-05T18:23:08.767Z,9.10
2022-10-05T18:25:44.774Z,9.03
2022-10-05T18:28:22.757Z,9.02
2022-10-05T18:31:27.758Z,8.99
2022-10-05T18:34:25.946Z,8.96
2022-10-05T18:37:17.160Z,8.93
2022-10-05T18:40:02.437Z,8.90
2022-10-05T18:42:55.263Z,8.89
2022-10-05T18:45:49.844Z,8.85
2022-10-05T18:48:40.512Z,8.75
2022-10-05T18:51:25.505Z,8.66
2022-10-05T18:54:35.830Z,8.58
2022-10-05T18:57:57.263Z,8.47
2022-10-05T19:00:31.117Z,8.43
2022-10-05T19:03:39.883Z,8.38
2022-10-05T19:06:25.699Z,8.30
2022-10-05T19:09:23.364Z,8.27
2022-10-05T19:12:30.624Z,8.26
2022-10-05T19:15:12.462Z,8.20
2022-10-05T19:17:55.864Z,8.16
2022-10-05T19:20:50.761Z,8.16
2022-10-05T19:23:42.185Z,8.12
2022-10-05T19:26:18.323Z,8.09
2022-10-05T19:29:16.025Z,7.97
2022-10-05T19:31:54.320Z,7.90
2022-10-05T19:34:45.268Z,7.91
2022-10-05T19:37:42.442Z,7.92
2022-10-05T19:40:25.919Z,7.93
2022-10-05T19:43:07.624Z,7.91
2022-10-05T19:45:43.675Z,7.89
2022-10-05T19:48:28.894Z,7.83
2022-10-05T19:51:00.957Z,7.80
2022-10-05T19:53:36.507Z,7.79
2022-10-05T19:56:29.455Z,7.74
2022-10-05T19:58:58.845Z,7.72
2022-10-05T20:01:36.471Z,7.76
2022-10-05T20:04:04.535Z,7.79
2022-10-05T20:06:31.265Z,7.81
2022-10-05T20:08:59.590Z,7.80
2022-10-05T20:11:27.986Z,7.82
2022-10-05T20:13:54.648Z,7.80
2022-10-05T20:19:50.846Z,7.78
2022-10-05T20:22:36.760Z,7.82
2022-10-05T20:25:28.249Z,7.86
2022-10-05T20:27:56.123Z,7.94
2022-10-05T20:30:28.091Z,7.97
2022-10-05T20:33:01.075Z,7.99
2022-10-05T20:35:30.035Z,7.96
2022-10-05T20:37:59.530Z,7.90
2022-10-05T20:40:28.568Z,7.84
2022-10-05T20:42:56.500Z,7.82
2022-10-05T20:45:23.346Z,7.76
2022-10-05T20:47:50.217Z,7.75
2022-10-05T20:50:17.398Z,7.78
2022-10-05T20:52:44.132Z,7.78
2022-10-05T20:55:12.015Z,7.79
2022-10-05T20:57:42.920Z,7.85
2022-10-05T21:00:11.737Z,7.87
2022-10-05T21:02:39.005Z,7.87
2022-10-05T21:05:07.097Z,7.87
2022-10-05T21:07:34.798Z,7.87
2022-10-05T21:10:03.179Z,7.88
2022-10-05T21:12:32.188Z,7.92
2022-10-05T21:14:59.354Z,7.98
2022-10-05T21:17:26.096Z,8.10
2022-10-05T21:19:52.906Z,8.19
2022-10-05T21:22:19.727Z,8.24
2022-10-05T21:24:46.757Z,8.26
2022-10-05T21:27:14.426Z,8.25
2022-10-05T21:29:41.131Z,8.26
2022-10-05T21:32:10.984Z,8.29
2022-10-05T21:34:38.810Z,8.25
2022-10-05T21:37:06.644Z,8.22
2022-10-05T21:39:34.666Z,8.18
2022-10-05T21:42:02.056Z,8.18
2022-10-05T21:44:28.782Z,8.14
2022-10-05T21:46:56.099Z,8.09
2022-10-05T21:49:23.931Z,8.03
2022-10-05T21:51:50.738Z,8.03
2022-10-05T21:54:20.704Z,7.97
2022-10-05T21:56:55.119Z,7.92
2022-10-05T21:59:26.697Z,7.92
2022-10-05T22:01:53.475Z,7.90
2022-10-05T22:04:20.449Z,7.91
2022-10-05T22:06:48.704Z,7.92
2022-10-05T22:09:15.437Z,7.95
2022-10-05T22:11:45.282Z,7.96
2022-10-05T22:14:14.513Z,7.95
2022-10-05T22:16:42.993Z,7.93
2022-10-05T22:19:17.203Z,7.92
2022-10-05T22:21:44.287Z,7.91
2022-10-05T22:24:11.095Z,7.89
2022-10-05T22:26:40.177Z,7.94
2022-10-05T22:29:07.218Z,7.90
2022-10-05T22:31:34.516Z,7.86
2022-10-05T22:34:01.379Z,7.86
2022-10-05T22:36:28.454Z,7.83
2022-10-05T22:38:55.212Z,7.74
2022-10-05T22:41:22.051Z,7.71
2022-10-05T22:43:50.454Z,7.69
2022-10-05T22:46:18.038Z,7.63
2022-10-05T22:48:45.191Z,7.63
2022-10-05T22:51:12.491Z,7.60
2022-10-05T22:53:39.454Z,7.58
2022-10-05T22:56:10.605Z,7.59
2022-10-05T22:58:37.862Z,7.59
2022-10-05T23:01:07.166Z,7.56
2022-10-05T23:03:34.769Z,7.58
2022-10-05T23:06:11.627Z,7.58
2022-10-05T23:08:39.676Z,7.64
2022-10-05T23:11:12.876Z,7.66
2022-10-05T23:13:41.454Z,7.62
2022-10-05T23:16:11.265Z,7.60
2022-10-05T23:18:38.511Z,7.56
2022-10-05T23:21:09.254Z,7.56
2022-10-05T23:23:37.893Z,7.50
2022-10-05T23:26:07.342Z,7.52
2022-10-05T23:28:34.463Z,7.48
2022-10-05T23:31:04.462Z,7.48
2022-10-05T23:33:32.145Z,7.50
2022-10-05T23:36:04.190Z,7.45
2022-10-05T23:38:32.136Z,7.37
2022-10-05T23:40:59.419Z,7.35
2022-10-05T23:43:27.003Z,7.40
2022-10-05T23:45:54.835Z,7.42
2022-10-05T23:48:22.325Z,7.42
2022-10-05T23:50:49.596Z,7.47
2022-10-05T23:53:17.762Z,7.49
2022-10-05T23:55:44.761Z,7.44
2022-10-05T23:58:12.023Z,7.42
